createdAt,value
2022-11-25T00:00:00.821Z,99821.22
2022-11-25T00:02:28.395Z,99819.31
2022-11-25T00:04:56.129Z,99823.13
2022-11-25T00:07:23.602Z,99822.22
2022-11-25T00:09:50.942Z,99811.63
2022-11-25T00:12:18.564Z,99818.56
2022-11-25T00:14:45.900Z,99816.84
2022-11-25T00:17:13.548Z,99814.88
2022-11-25T00:19:41.158Z,99813.53
2022-11-25T00:22:08.459Z,99821.13
2022-11-25T00:24:36.023Z,99823.56
2022-11-25T00:27:05.046Z,99823.69
2022-11-25T00:29:35.157Z,99823.69
2022-11-25T00:32:02.545Z,99829.66
2022-11-25T00:34:33.710Z,99831.78
2022-11-25T00:37:01.154Z,99847.16
2022-11-25T00:39:28.885Z,99839.44
2022-11-25T00:42:15.523Z,99846.09
2022-11-25T00:44:42.880Z,99843.31
2022-11-25T00:47:12.182Z,99842.34
2022-11-25T00:49:40.627Z,99843.88
2022-11-25T00:52:08.185Z,99847.19
2022-11-25T00:54:36.144Z,99854.84
2022-11-25T00:57:03.774Z,99854.16
2022-11-25T00:59:31.183Z,99850.38
2022-11-25T01:01:59.917Z,99861.22
2022-11-25T01:04:27.369Z,99865.06
2022-11-25T01:06:56.732Z,99866.91
2022-11-25T01:09:24.352Z,99868.88
2022-11-25T01:11:51.782Z,99870.31
2022-11-25T01:14:19.552Z,99869.84
2022-11-25T01:16:48.213Z,99881.22
2022-11-25T01:19:15.877Z,99890.28
2022-11-25T01:21:43.264Z,99884.59
2022-11-25T01:24:13.434Z,99873.31
2022-11-25T01:26:40.836Z,99871.94
2022-11-25T01:29:17.409Z,99869.72
2022-11-25T01:31:45.482Z,99869.69
2022-11-25T01:34:20.710Z,99868.56
2022-11-25T01:36:48.447Z,99871.09
2022-11-25T01:39:20.527Z,99875.75
2022-11-25T01:41:49.584Z,99871.66
2022-11-25T01:44:21.691Z,99873.31
2022-11-25T01:47:01.831Z,99870.81
2022-11-25T01:49:50.387Z,99881.47
2022-11-25T01:52:29.671Z,99873.81
2022-11-25T01:55:01.120Z,99874.66
2022-11-25T01:57:34.885Z,99879.63
2022-11-25T02:00:02.435Z,99873.25
2022-11-25T02:02:31.396Z,99879.53
2022-11-25T02:05:00.058Z,99866.09
2022-11-25T02:07:41.519Z,99870.03
2022-11-25T02:10:11.780Z,99874.72
2022-11-25T02:12:44.506Z,99879.81
2022-11-25T02:15:12.020Z,99877.41
2022-11-25T02:17:39.391Z,99879.50
2022-11-25T02:20:14.845Z,99888.66
2022-11-25T02:23:03.829Z,99882.69
2022-11-25T02:25:32.862Z,99892.59
2022-11-25T02:28:10.779Z,99894.28
2022-11-25T02:30:38.657Z,99894.00
2022-11-25T02:33:06.729Z,99892.31
2022-11-25T02:35:36.497Z,99895.09
2022-11-25T02:38:22.721Z,99888.69
2022-11-25T02:40:58.901Z,99891.53
2022-11-25T02:43:27.241Z,99893.13
2022-11-25T02:46:00.297Z,99888.16
2022-11-25T02:48:46.144Z,99888.22
2022-11-25T02:51:17.606Z,99889.91
2022-11-25T02:53:45.302Z,99892.25
2022-11-25T02:56:13.759Z,99887.34
2022-11-25T02:58:41.292Z,99888.19
2022-11-25T03:01:09.486Z,99889.25
2022-11-25T03:03:37.300Z,99897.72
2022-11-25T03:06:07.196Z,99903.75
2022-11-25T03:08:35.131Z,99899.00
2022-11-25T03:11:06.136Z,99890.72
2022-11-25T03:13:33.880Z,99888.09
2022-11-25T03:16:01.536Z,99896.69
2022-11-25T03:18:29.041Z,99911.94
2022-11-25T03:20:56.422Z,99908.25
2022-11-25T03:23:24.134Z,99906.00
2022-11-25T03:25:54.459Z,99913.03
2022-11-25T03:28:22.038Z,99909.03
2022-11-25T03:30:50.333Z,99911.91
2022-11-25T03:33:17.669Z,99914.84
2022-11-25T03:35:45.525Z,99924.66
2022-11-25T03:38:13.083Z,99930.28
2022-11-25T03:40:41.124Z,99937.25
2022-11-25T03:43:09.159Z,99935.81
2022-11-25T03:45:37.237Z,99934.38
2022-11-25T03:48:05.621Z,99930.16
2022-11-25T03:50:33.286Z,99928.91
2022-11-25T03:53:00.879Z,99928.12
2022-11-25T03:55:28.220Z,99933.22
2022-11-25T03:57:55.779Z,99936.69
2022-11-25T04:00:24.936Z,99940.91
2022-11-25T04:02:53.287Z,99932.41
2022-11-25T04:05:21.741Z,99941.56
2022-11-25T04:07:52.323Z,99947.63
2022-11-25T04:10:23.988Z,99952.41
2022-11-25T04:12:52.518Z,99946.31
2022-11-25T04:15:20.233Z,99952.53
2022-11-25T04:17:48.453Z,99953.69
2022-11-25T04:20:15.794Z,99950.72
2022-11-25T04:22:43.411Z,99948.34
2022-11-25T04:25:11.286Z,99947.13
2022-11-25T04:27:38.671Z,99960.59
2022-11-25T04:30:08.437Z,99959.66
2022-11-25T04:32:37.815Z,99961.34
2022-11-25T04:35:06.535Z,99974.88
2022-11-25T04:37:34.409Z,99988.03
2022-11-25T04:40:02.014Z,99990.59
2022-11-25T04:42:32.923Z,99993.78
2022-11-25T04:45:21.934Z,100005.38
2022-11-25T04:47:49.119Z,100003.16
2022-11-25T04:50:19.146Z,100007.94
2022-11-25T04:52:47.467Z,100005.25
2022-11-25T04:55:15.098Z,100015.38
2022-11-25T04:57:43.131Z,100018.34
2022-11-25T05:00:11.651Z,100014.28
2022-11-25T05:02:39.458Z,100019.47
2022-11-25T05:05:07.817Z,100015.06
2022-11-25T05:07:35.407Z,100025.16
2022-11-25T05:10:03.204Z,100021.19
2022-11-25T05:12:31.338Z,100023.13
2022-11-25T05:14:59.365Z,100030.19
2022-11-25T05:17:28.646Z,100038.44
2022-11-25T05:19:56.156Z,100040.31
2022-11-25T05:22:25.771Z,100043.66
2022-11-25T05:24:53.575Z,100055.78
2022-11-25T05:27:21.380Z,100039.75
2022-11-25T05:29:52.928Z,100055.56
2022-11-25T05:32:23.885Z,100061.84
2022-11-25T05:34:51.627Z,100057.25
2022-11-25T05:37:24.081Z,100070.44
2022-11-25T05:39:52.276Z,100064.34
2022-11-25T05:42:20.751Z,100070.06
2022-11-25T05:44:48.418Z,100070.19
2022-11-25T05:47:16.031Z,100072.53
2022-11-25T05:49:43.437Z,100074.81
2022-11-25T05:52:10.876Z,100077.37
2022-11-25T05:54:39.348Z,100075.31
2022-11-25T05:57:06.945Z,100080.72
2022-11-25T05:59:39.142Z,100080.41
2022-11-25T06:02:07.053Z,100081.03
2022-11-25T06:04:35.166Z,100090.72
2022-11-25T06:07:03.197Z,100076.22
2022-11-25T06:09:30.717Z,100089.69
2022-11-25T06:11:58.438Z,100085.28
2022-11-25T06:14:25.919Z,100093.53
2022-11-25T06:16:53.506Z,100094.13
2022-11-25T06:19:21.946Z,100092.03
2022-11-25T06:21:49.267Z,100094.37
2022-11-25T06:24:16.669Z,100098.19
2022-11-25T06:26:44.651Z,100104.00
2022-11-25T06:29:12.013Z,100106.09
2022-11-25T06:31:39.870Z,100109.13
2022-11-25T06:34:09.341Z,100114.97
2022-11-25T06:36:36.952Z,100107.19
2022-11-25T06:39:04.428Z,100110.94
2022-11-25T06:41:32.050Z,100115.22
2022-11-25T06:43:59.399Z,100116.50
2022-11-25T06:46:26.770Z,100116.44
2022-11-25T06:48:54.398Z,100123.56
2022-11-25T06:51:21.780Z,100121.03
2022-11-25T06:53:49.122Z,100128.06
2022-11-25T06:56:23.673Z,100131.38
2022-11-25T06:58:51.273Z,100122.16
2022-11-25T07:01:19.985Z,100126.50
2022-11-25T07:03:48.863Z,100125.72
2022-11-25T07:06:16.515Z,100126.94
2022-11-25T07:08:44.330Z,100138.25
2022-11-25T07:11:23.478Z,100134.22
2022-11-25T07:13:56.273Z,100141.19
2022-11-25T07:16:23.827Z,100147.44
2022-11-25T07:18:51.557Z,100144.66
2022-11-25T07:21:20.646Z,100151.47
2022-11-25T07:23:48.075Z,100148.28
2022-11-25T07:26:23.531Z,100149.84
2022-11-25T07:28:52.271Z,100150.38
2022-11-25T07:31:34.572Z,100150.41
2022-11-25T07:34:12.419Z,100143.44
2022-11-25T07:36:40.228Z,100144.00
2022-11-25T07:39:09.327Z,100147.84
2022-11-25T07:41:36.679Z,100147.59
2022-11-25T07:44:05.238Z,100144.56
2022-11-25T07:46:37.694Z,100149.28
2022-11-25T07:49:26.437Z,100149.97
2022-11-25T07:51:56.665Z,100156.50
2022-11-25T07:54:26.240Z,100151.53
2022-11-25T07:56:54.530Z,100171.59
2022-11-25T07:59:22.349Z,100159.41
2022-11-25T08:01:51.060Z,100156.63
2022-11-25T08:04:20.789Z,100154.16
2022-11-25T08:06:49.852Z,100156.50
2022-11-25T08:09:19.312Z,100156.47
2022-11-25T08:11:47.561Z,100158.16
2022-11-25T08:14:15.232Z,100160.97
2022-11-25T08:16:42.567Z,100162.63
2022-11-25T08:19:13.781Z,100155.22
2022-11-25T08:21:41.553Z,100152.16
2022-11-25T08:24:13.312Z,100157.56
2022-11-25T08:26:40.926Z,100170.34
2022-11-25T08:29:09.319Z,100170.03
2022-11-25T08:31:37.955Z,100168.63
2022-11-25T08:34:06.124Z,100179.53
2022-11-25T08:36:48.664Z,100172.06
2022-11-25T08:39:44.428Z,100171.91
2022-11-25T08:42:04.980Z,100166.13
2022-11-25T08:44:32.600Z,100170.59
2022-11-25T08:47:00.018Z,100172.09
2022-11-25T08:49:29.241Z,100174.84
2022-11-25T08:51:56.929Z,100168.06
2022-11-25T08:54:24.285Z,100168.31
2022-11-25T08:56:51.622Z,100170.78
2022-11-25T08:59:19.204Z,100169.44
2022-11-25T09:01:46.621Z,100174.03
2022-11-25T09:04:14.022Z,100174.00
2022-11-25T09:06:41.616Z,100171.91
2022-11-25T09:09:08.954Z,100160.38
2022-11-25T09:11:36.385Z,100178.69
2022-11-25T09:14:04.162Z,100169.94
2022-11-25T09:16:31.619Z,100171.50
2022-11-25T09:19:00.015Z,100172.63
2022-11-25T09:21:27.678Z,100175.69
2022-11-25T09:23:55.064Z,100176.78
2022-11-25T09:26:26.903Z,100176.34
2022-11-25T09:28:54.717Z,100175.34
2022-11-25T09:31:22.511Z,100170.72
2022-11-25T09:33:49.973Z,100168.06
2022-11-25T09:36:18.164Z,100170.84
2022-11-25T09:38:45.619Z,100169.34
2022-11-25T09:41:45.872Z,100169.84
2022-11-25T09:44:44.293Z,100169.22
2022-11-25T09:47:45.240Z,100157.88
2022-11-25T09:50:23.914Z,100162.47
2022-11-25T09:53:25.047Z,100165.91
2022-11-25T09:56:00.046Z,100162.94
2022-11-25T09:58:37.347Z,100149.00
2022-11-25T10:01:14.371Z,100154.75
2022-11-25T10:03:46.263Z,100157.62
2022-11-25T10:06:17.999Z,100159.22
2022-11-25T10:08:59.008Z,100164.44
2022-11-25T10:11:44.783Z,100165.19
2022-11-25T10:14:21.571Z,100163.38
2022-11-25T10:17:11.575Z,100160.94
2022-11-25T10:20:11.832Z,100161.97
2022-11-25T10:22:46.773Z,100156.34
2022-11-25T10:25:17.127Z,100163.38
2022-11-25T10:28:00.200Z,100157.28
2022-11-25T10:30:34.451Z,100161.84
2022-11-25T10:33:21.142Z,100167.62
2022-11-25T10:35:51.827Z,100161.38
2022-11-25T10:38:25.102Z,100158.84
2022-11-25T10:40:52.775Z,100161.66
2022-11-25T10:43:20.225Z,100153.16
2022-11-25T10:45:53.236Z,100158.06
2022-11-25T10:48:44.204Z,100160.94
2022-11-25T10:51:32.279Z,100170.03
2022-11-25T10:54:39.018Z,100176.84
2022-11-25T10:57:17.867Z,100173.84
2022-11-25T10:59:56.149Z,100175.06
2022-11-25T11:02:30.979Z,100171.06
2022-11-25T11:05:11.088Z,100176.16
2022-11-25T11:07:42.998Z,100172.97
2022-11-25T11:10:26.254Z,100180.78
2022-11-25T11:13:03.816Z,100178.34
2022-11-25T11:15:41.372Z,100180.53
2022-11-25T11:18:25.750Z,100178.19
2022-11-25T11:20:55.540Z,100178.09
2022-11-25T11:23:23.029Z,100183.19
2022-11-25T11:26:03.592Z,100174.75
2022-11-25T11:28:38.966Z,100173.56
2022-11-25T11:31:17.512Z,100179.87
2022-11-25T11:33:48.370Z,100177.13
2022-11-25T11:36:53.085Z,100174.78
2022-11-25T11:40:00.253Z,100184.44
2022-11-25T11:42:38.446Z,100186.53
2022-11-25T11:45:06.286Z,100180.69
2022-11-25T11:47:52.433Z,100184.22
2022-11-25T11:50:24.974Z,100168.69
2022-11-25T11:52:55.324Z,100170.00
2022-11-25T11:56:00.299Z,100170.66
2022-11-25T11:58:52.009Z,100173.59
2022-11-25T12:01:56.940Z,100172.19
2022-11-25T12:04:28.525Z,100164.62
2022-11-25T12:07:22.986Z,100154.34
2022-11-25T12:09:57.090Z,100158.19
2022-11-25T12:12:33.172Z,100150.91
2022-11-25T12:15:21.175Z,100154.41
2022-11-25T12:18:23.595Z,100155.13
2022-11-25T12:21:03.019Z,100151.41
2022-11-25T12:23:36.119Z,100169.66
2022-11-25T12:26:08.184Z,100151.22
2022-11-25T12:28:43.536Z,100157.72
2022-11-25T12:31:20.738Z,100154.44
2022-11-25T12:34:04.403Z,100154.09
2022-11-25T12:36:40.486Z,100152.09
2022-11-25T12:39:33.023Z,100149.78
2022-11-25T12:42:06.104Z,100152.44
2022-11-25T12:44:59.594Z,100155.94
2022-11-25T12:47:27.646Z,100144.97
2022-11-25T12:49:55.418Z,100147.47
2022-11-25T12:52:42.825Z,100150.09
2022-11-25T12:55:27.912Z,100145.31
2022-11-25T12:58:11.753Z,100138.47
2022-11-25T13:01:18.420Z,100146.31
2022-11-25T13:04:07.468Z,100143.78
2022-11-25T13:06:53.959Z,100141.78
2022-11-25T13:10:01.923Z,100128.16
2022-11-25T13:12:48.365Z,100128.84
2022-11-25T13:15:38.184Z,100134.16
2022-11-25T13:18:11.402Z,100129.19
2022-11-25T13:20:44.204Z,100133.84
2022-11-25T13:23:13.139Z,100136.00
2022-11-25T13:25:41.383Z,100138.81
2022-11-25T13:28:34.123Z,100145.13
2022-11-25T13:31:14.093Z,100144.16
2022-11-25T13:33:44.778Z,100153.28
2022-11-25T13:36:16.496Z,100150.62
2022-11-25T13:38:50.050Z,100160.62
2022-11-25T13:41:22.921Z,100164.78
2022-11-25T13:44:04.361Z,100171.59
2022-11-25T13:46:39.623Z,100161.12
2022-11-25T13:49:28.824Z,100158.84
2022-11-25T13:52:11.777Z,100162.91
2022-11-25T13:54:49.761Z,100157.56
2022-11-25T13:57:19.888Z,100155.94
2022-11-25T13:59:55.580Z,100166.41
2022-11-25T14:02:29.089Z,100160.94
2022-11-25T14:05:30.553Z,100167.59
2022-11-25T14:08:20.986Z,100166.75
2022-11-25T14:11:37.628Z,100171.69
2022-11-25T14:14:55.975Z,100182.69
2022-11-25T14:17:24.151Z,100183.81
2022-11-25T14:20:05.059Z,100190.28
2022-11-25T14:23:09.796Z,100189.09
2022-11-25T14:25:56.408Z,100193.72
2022-11-25T14:28:42.001Z,100191.19
2022-11-25T14:31:11.251Z,100194.50
2022-11-25T14:34:00.310Z,100191.19
2022-11-25T14:36:30.883Z,100204.56
2022-11-25T14:39:00.888Z,100197.84
2022-11-25T14:41:33.229Z,100195.25
2022-11-25T14:44:04.035Z,100195.34
2022-11-25T14:46:31.501Z,100193.19
2022-11-25T14:49:00.289Z,100198.97
2022-11-25T14:51:33.515Z,100194.66
2022-11-25T14:54:00.855Z,100200.56
2022-11-25T14:56:34.163Z,100210.88
2022-11-25T14:59:01.504Z,100207.16
2022-11-25T15:01:30.523Z,100213.78
2022-11-25T15:04:05.059Z,100214.72
2022-11-25T15:06:36.687Z,100218.41
2022-11-25T15:09:04.206Z,100213.56
2022-11-25T15:11:32.683Z,100214.25
2022-11-25T15:14:02.980Z,100220.47
2022-11-25T15:16:38.203Z,100222.66
2022-11-25T15:19:06.909Z,100225.53
2022-11-25T15:21:48.385Z,100219.56
2022-11-25T15:24:28.197Z,100217.59
2022-11-25T15:27:05.128Z,100226.47
2022-11-25T15:29:36.379Z,100233.69
2022-11-25T15:32:03.923Z,100228.31
2022-11-25T15:34:31.356Z,100234.22
2022-11-25T15:37:01.182Z,100231.41
2022-11-25T15:39:29.487Z,100233.44
2022-11-25T15:42:07.470Z,100234.44
2022-11-25T15:44:38.624Z,100231.41
2022-11-25T15:47:25.447Z,100220.09
2022-11-25T15:50:02.513Z,100223.13
2022-11-25T15:52:31.016Z,100220.34
2022-11-25T15:55:31.875Z,100227.53
2022-11-25T15:58:03.327Z,100223.47
2022-11-25T16:00:30.877Z,100231.03
2022-11-25T16:02:58.535Z,100223.00
2022-11-25T16:05:31.860Z,100228.97
2022-11-25T16:08:23.336Z,100226.31
2022-11-25T16:10:55.317Z,100222.63
2022-11-25T16:13:23.126Z,100227.97
2022-11-25T16:16:12.175Z,100232.91
2022-11-25T16:18:55.931Z,100244.91
2022-11-25T16:21:30.709Z,100244.94
2022-11-25T16:24:06.113Z,100242.44
2022-11-25T16:26:38.156Z,100247.75
2022-11-25T16:29:14.784Z,100251.75
2022-11-25T16:31:42.185Z,100256.78
2022-11-25T16:34:13.681Z,100257.63
2022-11-25T16:36:41.312Z,100255.88
2022-11-25T16:39:09.130Z,100257.63
2022-11-25T16:41:36.737Z,100258.72
2022-11-25T16:44:21.238Z,100267.66
2022-11-25T16:46:48.954Z,100262.81
2022-11-25T16:49:17.365Z,100267.97
2022-11-25T16:51:44.704Z,100277.31
2022-11-25T16:54:16.269Z,100279.19
2022-11-25T16:56:43.631Z,100281.09
2022-11-25T16:59:25.561Z,100281.09
2022-11-25T17:01:53.432Z,100284.16
2022-11-25T17:04:21.280Z,100283.91
2022-11-25T17:07:16.391Z,100278.91
2022-11-25T17:09:36.609Z,100287.81
2022-11-25T17:12:04.595Z,100285.72
2022-11-25T17:14:33.573Z,100287.69
2022-11-25T17:17:01.436Z,100289.66
2022-11-25T17:19:29.330Z,100289.34
2022-11-25T17:21:56.761Z,100283.38
2022-11-25T17:24:24.755Z,100288.69
2022-11-25T17:27:00.451Z,100286.03
2022-11-25T17:29:33.007Z,100290.47
2022-11-25T17:32:00.433Z,100287.56
2022-11-25T17:34:28.080Z,100286.47
2022-11-25T17:36:55.452Z,100287.44
2022-11-25T17:39:22.835Z,100287.72
2022-11-25T17:41:50.928Z,100292.03
2022-11-25T17:44:28.503Z,100293.97
2022-11-25T17:46:57.283Z,100297.28
2022-11-25T17:49:24.763Z,100293.66
2022-11-25T17:51:52.109Z,100292.34
2022-11-25T17:54:19.721Z,100294.50
2022-11-25T17:56:52.097Z,100296.28
2022-11-25T17:59:30.434Z,100300.72
2022-11-25T18:01:59.205Z,100310.22
2022-11-25T18:04:29.858Z,100310.50
2022-11-25T18:06:57.234Z,100315.72
2022-11-25T18:09:24.583Z,100320.41
2022-11-25T18:11:53.867Z,100319.22
2022-11-25T18:14:34.460Z,100323.28
2022-11-25T18:17:03.808Z,100332.09
2022-11-25T18:19:31.678Z,100338.19
2022-11-25T18:22:15.601Z,100344.94
2022-11-25T18:24:43.250Z,100339.78
2022-11-25T18:27:32.088Z,100337.47
2022-11-25T18:30:02.532Z,100341.03
2022-11-25T18:32:30.562Z,100338.84
2022-11-25T18:34:57.901Z,100343.84
2022-11-25T18:37:25.576Z,100349.75
2022-11-25T18:39:52.939Z,100350.16
2022-11-25T18:42:27.073Z,100350.97
2022-11-25T18:44:55.178Z,100356.41
2022-11-25T18:47:22.536Z,100372.50
2022-11-25T18:49:55.089Z,100366.31
2022-11-25T18:52:24.664Z,100367.31
2022-11-25T18:54:52.172Z,100374.19
2022-11-25T18:57:19.507Z,100381.28
2022-11-25T18:59:55.975Z,100376.75
2022-11-25T19:02:34.776Z,100383.91
2022-11-25T19:05:02.843Z,100376.16
2022-11-25T19:07:30.304Z,100383.13
2022-11-25T19:09:57.649Z,100387.50
2022-11-25T19:12:25.294Z,100389.97
2022-11-25T19:14:52.689Z,100391.56
2022-11-25T19:17:21.436Z,100392.16
2022-11-25T19:19:49.068Z,100398.50
2022-11-25T19:22:18.040Z,100404.50
2022-11-25T19:24:46.150Z,100403.59
2022-11-25T19:27:23.356Z,100408.62
2022-11-25T19:29:50.916Z,100402.44
2022-11-25T19:32:21.146Z,100399.69
2022-11-25T19:34:53.141Z,100405.53
2022-11-25T19:37:21.572Z,100407.59
2022-11-25T19:39:52.111Z,100405.03
2022-11-25T19:42:19.505Z,100410.22
2022-11-25T19:44:47.149Z,100413.00
2022-11-25T19:47:24.771Z,100414.56
2022-11-25T19:49:57.212Z,100423.84
2022-11-25T19:52:30.717Z,100429.38
2022-11-25T19:54:58.313Z,100428.84
2022-11-25T19:57:25.655Z,100432.38
2022-11-25T19:59:52.972Z,100436.53
2022-11-25T20:02:22.049Z,100440.00
2022-11-25T20:04:51.119Z,100432.69
2022-11-25T20:07:19.451Z,100437.56
2022-11-25T20:09:47.551Z,100444.28
2022-11-25T20:12:21.708Z,100449.41
2022-11-25T20:14:49.158Z,100445.19
2022-11-25T20:17:27.456Z,100449.47
2022-11-25T20:19:57.131Z,100452.44
2022-11-25T20:22:26.951Z,100447.37
2022-11-25T20:24:54.239Z,100456.47
2022-11-25T20:27:24.398Z,100464.25
2022-11-25T20:29:52.048Z,100466.00
2022-11-25T20:32:28.113Z,100463.56
2022-11-25T20:34:58.652Z,100471.78
2022-11-25T20:37:26.438Z,100475.03
2022-11-25T20:39:55.346Z,100480.59
2022-11-25T20:42:23.032Z,100478.84
2022-11-25T20:44:55.941Z,100484.06
2022-11-25T20:47:26.451Z,100487.19
2022-11-25T20:49:53.996Z,100492.72
2022-11-25T20:52:28.334Z,100483.78
2022-11-25T20:54:56.169Z,100490.97
2022-11-25T20:57:23.775Z,100484.53
2022-11-25T20:59:51.241Z,100483.16
2022-11-25T21:02:21.535Z,100489.13
2022-11-25T21:04:49.089Z,100488.72
2022-11-25T21:07:17.886Z,100480.13
2022-11-25T21:09:45.583Z,100486.06
2022-11-25T21:12:19.439Z,100487.53
2022-11-25T21:14:47.479Z,100487.31
2022-11-25T21:17:14.930Z,100486.03
2022-11-25T21:19:42.268Z,100480.91
2022-11-25T21:22:22.403Z,100495.81
2022-11-25T21:24:49.764Z,100486.44
2022-11-25T21:27:17.399Z,100487.53
2022-11-25T21:29:44.776Z,100488.72
2022-11-25T21:32:22.615Z,100498.13
2022-11-25T21:34:50.236Z,100497.13
2022-11-25T21:37:18.226Z,100493.16
2022-11-25T21:39:45.533Z,100490.34
2022-11-25T21:42:17.777Z,100498.69
2022-11-25T21:44:45.103Z,100501.13
2022-11-25T21:47:23.456Z,100501.13
2022-11-25T21:49:51.118Z,100500.28
2022-11-25T21:52:18.837Z,100503.75
2022-11-25T21:54:46.196Z,100503.94
2022-11-25T21:57:26.194Z,100501.72
2022-11-25T21:59:53.923Z,100498.69
2022-11-25T22:02:22.352Z,100503.12
2022-11-25T22:04:50.210Z,100500.88
2022-11-25T22:07:17.643Z,100501.56
2022-11-25T22:09:45.012Z,100505.88
2022-11-25T22:12:30.571Z,100501.84
2022-11-25T22:14:58.274Z,100505.81
2022-11-25T22:17:26.152Z,100499.78
2022-11-25T22:19:53.558Z,100508.16
2022-11-25T22:22:20.981Z,100512.69
2022-11-25T22:24:48.556Z,100505.88
2022-11-25T22:27:22.215Z,100503.94
2022-11-25T22:29:49.826Z,100509.62
2022-11-25T22:32:17.344Z,100519.44
2022-11-25T22:34:44.701Z,100524.56
2022-11-25T22:37:17.036Z,100519.72
2022-11-25T22:39:44.385Z,100520.62
2022-11-25T22:42:28.658Z,100525.16
2022-11-25T22:44:56.327Z,100527.59
2022-11-25T22:47:37.744Z,100527.53
2022-11-25T22:50:12.384Z,100534.69
2022-11-25T22:52:40.006Z,100535.53
2022-11-25T22:55:18.207Z,100532.94
2022-11-25T22:57:46.473Z,100528.44
2022-11-25T23:00:25.347Z,100539.25
2022-11-25T23:02:55.155Z,100532.84
2022-11-25T23:05:32.190Z,100544.25
2022-11-25T23:08:18.091Z,100540.44
2022-11-25T23:10:45.522Z,100544.22
2022-11-25T23:13:14.510Z,100545.75
2022-11-25T23:15:44.571Z,100546.34
2022-11-25T23:18:14.542Z,100544.06
2022-11-25T23:20:42.439Z,100552.50
2022-11-25T23:23:15.839Z,100552.41
2022-11-25T23:25:43.680Z,100544.91
2022-11-25T23:28:11.088Z,100559.41
2022-11-25T23:30:38.765Z,100553.38
2022-11-25T23:33:09.281Z,100561.72
2022-11-25T23:35:37.260Z,100562.47
2022-11-25T23:38:07.933Z,100562.94
2022-11-25T23:40:35.545Z,100550.25
2022-11-25T23:43:03.070Z,100551.25
2022-11-25T23:45:30.493Z,100550.16
2022-11-25T23:47:58.108Z,100560.03
2022-11-25T23:50:25.260Z,100562.69
2022-11-25T23:52:52.839Z,100566.00
2022-11-25T23:55:23.901Z,100561.38
2022-11-25T23:57:51.240Z,100562.31
